Scotia — MXHR6 — position and weather

sailwx.info

Track history (hours):
 
Tides and Currents Weather Stations Pressure Air Temp Water Temp Dewpoint Dewpoint Depression Visibility Wind Speed Wind Dir Waves Ship Positions

Oceanographic research ship Scotia (UK)

Detailed information on ship capabilities available from University of Delaware's Ocean Information Center.

Last reported at 2020-Jul-06 22:18 UTC. Time now 2020-Jul-07 15:58 UTC.
Position N 58°52' W 002°37'.

Length 68.6 m; beam 15 m; draft 5.6 m.

Type: Other ship. MMSI: 234973000.

Date/timePositionNaut miles runAvg speedWind from/ knotsBaromVisibWave heightAir tempDewpointWater temp
2020-Jul-06 22:18N 58°52' W 002°37'16 0.4
2020-Jul-05 02:30N 58°37' W 002°46'5 9.8
2020-Jul-05 02:00N 58°37' W 002°55'6 1.6
2020-Jul-04 22:17N 58°31' W 002°58'2410.4
2020-Jul-04 20:01N 58°54' W 003°02'2 2.9
2020-Jul-04 19:29N 58°56' W 003°01'0 0.0
2020-Jul-04 18:29N 58°56' W 003°01'0 0.0
2020-Jul-04 12:29N 58°56' W 003°01'0 0.0
2020-Jul-04 11:29N 58°56' W 003°01'0 0.0
2020-Jul-04 02:59N 58°56' W 003°01'0 0.0
2020-Jul-04 01:59N 58°56' W 003°01'26 5.8
2020-Jul-03 21:30N 58°31' W 002°47'3 5.3
2020-Jul-03 21:00N 58°29' W 002°44'71 6.8
2020-Jul-03 10:31N 57°25' W 001°45'510.2
2020-Jul-03 10:00N 57°21' W 001°50'510.7
2020-Jul-03 09:31N 57°16' W 001°55'611.2
2020-Jul-03 09:01N 57°11' W 001°60'4 7.6
2020-Jul-03 08:31N 57°09' W 002°05'0 0.1
2020-Jul-03 06:29N 57°09' W 002°05'0 0.0
2020-Jul-03 03:59N 57°09' W 002°05'0 0.0
2020-Jul-03 02:59N 57°09' W 002°05'0 0.0
2020-Jul-03 02:29N 57°09' W 002°05'0 0.0
2020-Jul-02 20:29N 57°09' W 002°05'0 0.0
2020-Jul-02 19:29N 57°09' W 002°05'0 0.0
2020-Jul-02 18:29N 57°09' W 002°05'0 0.0
2020-Jul-02 15:59N 57°09' W 002°05'0 0.0
2020-Jul-02 14:29N 57°09' W 002°05'0 0.0
2020-Jul-02 11:29N 57°09' W 002°05'0 0.0
2020-Jul-02 10:59N 57°09' W 002°05'0 0.0
2020-Jul-02 10:29N 57°09' W 002°05'0 0.0
2020-Jul-02 09:29N 57°09' W 002°05'0 0.0
2020-Jul-02 08:59N 57°09' W 002°05'0 0.0
2020-Jul-02 06:29N 57°09' W 002°05'0 0.0
2020-Jul-02 03:59N 57°09' W 002°05'0 0.0
2020-Jul-02 03:29N 57°09' W 002°05'0 0.0
2020-Jul-02 02:29N 57°09' W 002°05'0 0.0
2020-Jul-02 01:29N 57°09' W 002°05'0 0.0
2020-Jul-01 23:29N 57°09' W 002°05'0 0.0
2020-Jul-01 18:29N 57°09' W 002°05'0 0.0
2020-Jul-01 15:59N 57°09' W 002°05'0 0.0
2020-Jul-01 13:29N 57°09' W 002°05'0 0.0
2020-Jul-01 05:29N 57°09' W 002°05'0 0.0
2020-Jul-01 03:59N 57°09' W 002°05'0 0.0
2020-Jul-01 02:29N 57°09' W 002°05'0 0.0
2020-Jun-30 23:59N 57°09' W 002°05'0 0.0
2020-Jun-30 21:29N 57°09' W 002°05'0 0.0
2020-Jun-30 18:29N 57°09' W 002°05'0 0.0
2020-Jun-30 17:59N 57°09' W 002°05'0 0.0
2020-Jun-30 17:29N 57°09' W 002°05'0 0.0
2020-Jun-30 16:29N 57°09' W 002°05'0 0.0
2020-Jun-30 15:29N 57°09' W 002°05'0 0.0
2020-Jun-30 14:29N 57°09' W 002°05'0 0.0
2020-Jun-30 13:29N 57°09' W 002°05'0 0.0
2020-Jun-30 11:59N 57°09' W 002°05'0 0.0
2020-Jun-30 07:29N 57°09' W 002°05'0 0.0
2020-Jun-30 06:29N 57°09' W 002°05'0 0.0
2020-Jun-30 03:29N 57°09' W 002°05'0 0.0
2020-Jun-30 02:29N 57°09' W 002°05'0 0.0
2020-Jun-30 00:29N 57°09' W 002°05'0 0.0
2020-Jun-29 22:59N 57°09' W 002°05'0 0.0
2020-Jun-29 22:29N 57°09' W 002°05'0 0.0
2020-Jun-29 21:29N 57°09' W 002°05'33 6.7
2020-Jun-29 16:31N 57°40' W 001°46'612.0
2020-Jun-29 16:00N 57°45' W 001°52'7 3.3
2020-Jun-29 13:57N 57°50' W 002°02'65 2.1
2020-Jun-28 07:30N 58°43' W 003°14'2610.4
2020-Jun-28 05:00N 58°42' W 004°04'3212.0
2020-Jun-28 02:19N 58°38' W 005°06'1512.3
2020-Jun-28 01:05N 58°28' W 005°27'14 6.7
2020-Jun-27 23:00N 58°16' W 005°40'2 3.6
2020-Jun-27 22:31N 58°15' W 005°37'6 2.0
2020-Jun-27 19:29N 58°09' W 005°37'4 9.5
2020-Jun-27 19:00N 58°07' W 005°45'26 2.3
2020-Jun-27 07:48N 57°43' W 006°05'10 4.3
2020-Jun-27 05:33N 57°43' W 006°23'19 5.0
2020-Jun-27 01:50N 57°29' W 006°47'  
Track history (hours):
 
Tides and Currents Weather Stations Pressure Air Temp Water Temp Dewpoint Dewpoint Depression Visibility Wind Speed Wind Dir Waves Ship Positions

Oceanographic research ship Scotia (UK)

Detailed information on ship capabilities available from University of Delaware's Ocean Information Center.

Last reported at 2020-Jul-06 22:18 UTC. Time now 2020-Jul-07 15:58 UTC.
Position N 58°52' W 002°37'.

Length 68.6 m; beam 15 m; draft 5.6 m.

Type: Other ship. MMSI: 234973000.

Date/timePositionNaut miles runAvg speedWind from/ knotsBaromVisibWave heightAir tempDewpointWater temp
2020-Jul-06 22:18N 58°52' W 002°37'16 0.4
2020-Jul-05 02:30N 58°37' W 002°46'5 9.8
2020-Jul-05 02:00N 58°37' W 002°55'6 1.6
2020-Jul-04 22:17N 58°31' W 002°58'2410.4
2020-Jul-04 20:01N 58°54' W 003°02'2 2.9
2020-Jul-04 19:29N 58°56' W 003°01'0 0.0
2020-Jul-04 18:29N 58°56' W 003°01'0 0.0
2020-Jul-04 12:29N 58°56' W 003°01'0 0.0
2020-Jul-04 11:29N 58°56' W 003°01'0 0.0
2020-Jul-04 02:59N 58°56' W 003°01'0 0.0
2020-Jul-04 01:59N 58°56' W 003°01'26 5.8
2020-Jul-03 21:30N 58°31' W 002°47'3 5.3
2020-Jul-03 21:00N 58°29' W 002°44'71 6.8
2020-Jul-03 10:31N 57°25' W 001°45'510.2
2020-Jul-03 10:00N 57°21' W 001°50'510.7
2020-Jul-03 09:31N 57°16' W 001°55'611.2
2020-Jul-03 09:01N 57°11' W 001°60'4 7.6
2020-Jul-03 08:31N 57°09' W 002°05'0 0.1
2020-Jul-03 06:29N 57°09' W 002°05'0 0.0
2020-Jul-03 03:59N 57°09' W 002°05'0 0.0
2020-Jul-03 02:59N 57°09' W 002°05'0 0.0
2020-Jul-03 02:29N 57°09' W 002°05'0 0.0
2020-Jul-02 20:29N 57°09' W 002°05'0 0.0
2020-Jul-02 19:29N 57°09' W 002°05'0 0.0
2020-Jul-02 18:29N 57°09' W 002°05'0 0.0
2020-Jul-02 15:59N 57°09' W 002°05'0 0.0
2020-Jul-02 14:29N 57°09' W 002°05'0 0.0
2020-Jul-02 11:29N 57°09' W 002°05'0 0.0
2020-Jul-02 10:59N 57°09' W 002°05'0 0.0
2020-Jul-02 10:29N 57°09' W 002°05'0 0.0
2020-Jul-02 09:29N 57°09' W 002°05'0 0.0
2020-Jul-02 08:59N 57°09' W 002°05'0 0.0
2020-Jul-02 06:29N 57°09' W 002°05'0 0.0
2020-Jul-02 03:59N 57°09' W 002°05'0 0.0
2020-Jul-02 03:29N 57°09' W 002°05'0 0.0
2020-Jul-02 02:29N 57°09' W 002°05'0 0.0
2020-Jul-02 01:29N 57°09' W 002°05'0 0.0
2020-Jul-01 23:29N 57°09' W 002°05'0 0.0
2020-Jul-01 18:29N 57°09' W 002°05'0 0.0
2020-Jul-01 15:59N 57°09' W 002°05'0 0.0
2020-Jul-01 13:29N 57°09' W 002°05'0 0.0
2020-Jul-01 05:29N 57°09' W 002°05'0 0.0
2020-Jul-01 03:59N 57°09' W 002°05'0 0.0
2020-Jul-01 02:29N 57°09' W 002°05'0 0.0
2020-Jun-30 23:59N 57°09' W 002°05'0 0.0
2020-Jun-30 21:29N 57°09' W 002°05'0 0.0
2020-Jun-30 18:29N 57°09' W 002°05'0 0.0
2020-Jun-30 17:59N 57°09' W 002°05'0 0.0
2020-Jun-30 17:29N 57°09' W 002°05'0 0.0
2020-Jun-30 16:29N 57°09' W 002°05'0 0.0
2020-Jun-30 15:29N 57°09' W 002°05'0 0.0
2020-Jun-30 14:29N 57°09' W 002°05'0 0.0
2020-Jun-30 13:29N 57°09' W 002°05'0 0.0
2020-Jun-30 11:59N 57°09' W 002°05'0 0.0
2020-Jun-30 07:29N 57°09' W 002°05'0 0.0
2020-Jun-30 06:29N 57°09' W 002°05'0 0.0
2020-Jun-30 03:29N 57°09' W 002°05'0 0.0
2020-Jun-30 02:29N 57°09' W 002°05'0 0.0
2020-Jun-30 00:29N 57°09' W 002°05'0 0.0
2020-Jun-29 22:59N 57°09' W 002°05'0 0.0
2020-Jun-29 22:29N 57°09' W 002°05'0 0.0
2020-Jun-29 21:29N 57°09' W 002°05'33 6.7
2020-Jun-29 16:31N 57°40' W 001°46'612.0
2020-Jun-29 16:00N 57°45' W 001°52'7 3.3
2020-Jun-29 13:57N 57°50' W 002°02'65 2.1
2020-Jun-28 07:30N 58°43' W 003°14'2610.4
2020-Jun-28 05:00N 58°42' W 004°04'3212.0
2020-Jun-28 02:19N 58°38' W 005°06'1512.3
2020-Jun-28 01:05N 58°28' W 005°27'14 6.7
2020-Jun-27 23:00N 58°16' W 005°40'2 3.6
2020-Jun-27 22:31N 58°15' W 005°37'6 2.0
2020-Jun-27 19:29N 58°09' W 005°37'4 9.5
2020-Jun-27 19:00N 58°07' W 005°45'26 2.3
2020-Jun-27 07:48N 57°43' W 006°05'10 4.3
2020-Jun-27 05:33N 57°43' W 006°23'19 5.0
2020-Jun-27 01:50N 57°29' W 006°47'  

Dump ship's entire track history